Time;durP1;ratioP1;P1;durP2;ratioP2;P2;SDS_P1;SDS_P2;PMS_P1;PMS_P2;Temp;Humidity;BMP_temperature;BMP_pressure;BME280_temperature;BME280_humidity;BME280_pressure;Samples;Min_cycle;Max_cycle;Signal;HPM_P1;HPM_P2
2023/06/24 00:01:43;;;;;;;10.65;9.18;;;;;;;20.98;65.32;94816.47;5088131;28;20518;-74
2023/06/24 00:04:09;;;;;;;10.85;9.15;;;;;;;20.87;65.21;94814.34;5094338;28;20416;-74
2023/06/24 00:06:34;;;;;;;9.98;8.98;;;;;;;20.82;66.13;94811.47;5085776;28;20032;-74
2023/06/24 00:09:04;;;;;;;9.60;8.68;;;;;;;20.72;66.45;94809.13;5105523;28;20489;-73
2023/06/24 00:11:29;;;;;;;10.43;9.35;;;;;;;20.72;66.86;94816.25;5107005;28;20031;-73
2023/06/24 00:13:55;;;;;;;10.23;9.25;;;;;;;20.70;66.88;94805.88;5092123;28;20035;-73
2023/06/24 00:16:27;;;;;;;10.38;9.38;;;;;;;20.44;67.61;94811.69;5085930;28;20028;-73
2023/06/24 00:19:01;;;;;;;11.25;10.05;;;;;;;20.37;67.76;94804.72;5094848;28;20031;-73
2023/06/24 00:21:29;;;;;;;18.42;10.10;;;;;;;20.47;67.48;94802.56;5091072;28;20492;-73
2023/06/24 00:23:58;;;;;;;11.57;10.25;;;;;;;20.37;67.40;94800.25;5085881;28;20490;-73
2023/06/24 00:26:25;;;;;;;10.90;9.80;;;;;;;20.34;67.95;94813.84;5102840;28;20102;-73
2023/06/24 00:28:50;;;;;;;11.95;9.73;;;;;;;20.44;68.06;94803.78;5087164;28;20028;-73
2023/06/24 00:31:16;;;;;;;10.73;9.63;;;;;;;20.42;68.02;94811.06;5091018;28;20050;-73
2023/06/24 00:33:42;;;;;;;12.32;9.65;;;;;;;20.37;68.01;94813.44;5066055;28;20032;-73
2023/06/24 00:36:11;;;;;;;11.57;9.77;;;;;;;20.37;68.24;94816.09;5069412;28;20032;-73
2023/06/24 00:38:37;;;;;;;10.95;9.80;;;;;;;20.34;68.36;94821.75;5053723;28;20036;-73
2023/06/24 00:41:02;;;;;;;12.38;9.82;;;;;;;20.29;68.69;94822.28;5097824;28;20245;-74
2023/06/24 00:43:29;;;;;;;11.55;10.10;;;;;;;20.21;68.79;94817.13;5088940;28;20079;-73
2023/06/24 00:45:55;;;;;;;11.23;10.05;;;;;;;20.11;68.50;94813.97;5081971;28;20033;-73
2023/06/24 00:48:21;;;;;;;12.30;10.25;;;;;;;20.22;68.72;94812.66;5073668;28;20056;-73
2023/06/24 00:50:47;;;;;;;11.23;10.07;;;;;;;20.20;69.08;94812.88;5071652;28;20462;-73
2023/06/24 00:53:12;;;;;;;11.23;10.02;;;;;;;20.00;69.42;94812.66;5077472;28;20036;-73
2023/06/24 00:55:37;;;;;;;11.98;10.07;;;;;;;19.95;69.34;94801.84;5058843;28;20028;-73
2023/06/24 00:58:03;;;;;;;11.95;9.85;;;;;;;19.83;69.80;94779.56;5078801;28;20513;-73
2023/06/24 01:00:28;;;;;;;12.32;10.35;;;;;;;19.98;69.48;94813.84;5065096;28;20481;-74
2023/06/24 01:02:54;;;;;;;11.60;10.05;;;;;;;19.87;70.12;94817.75;5059210;28;20089;-73
2023/06/24 01:05:23;;;;;;;11.52;10.32;;;;;;;19.81;69.75;94806.13;5075727;28;20028;-74
2023/06/24 01:07:54;;;;;;;12.05;10.13;;;;;;;19.89;69.47;94802.56;5072983;28;20078;-73
2023/06/24 01:10:20;;;;;;;13.48;9.90;;;;;;;19.86;69.48;94811.69;5040560;28;20048;-73
2023/06/24 01:12:45;;;;;;;11.55;10.02;;;;;;;19.88;69.72;94800.13;5088344;28;20024;-74
2023/06/24 01:15:11;;;;;;;12.05;10.07;;;;;;;19.74;69.70;94792.03;5071347;28;20086;-74
2023/06/24 01:17:36;;;;;;;11.07;9.98;;;;;;;19.83;69.57;94800.66;5081252;28;20097;-74
2023/06/24 01:20:20;;;;;;;11.13;9.50;;;;;;;19.83;69.39;94798.03;5070999;28;20457;-73
2023/06/24 01:22:51;;;;;;;11.48;9.60;;;;;;;19.86;69.23;94806.41;5074681;28;20032;-74
2023/06/24 01:25:30;;;;;;;11.80;10.30;;;;;;;19.78;69.82;94803.03;5079296;28;20130;-75
2023/06/24 01:28:05;;;;;;;11.38;10.15;;;;;;;19.70;69.37;94805.78;5091322;28;20040;-74
2023/06/24 01:30:42;;;;;;;11.82;10.25;;;;;;;19.63;69.81;94784.56;5078326;28;20119;-73
2023/06/24 01:33:08;;;;;;;12.43;9.95;;;;;;;19.73;69.43;94794.88;5083684;28;20135;-73
2023/06/24 01:35:34;;;;;;;11.00;9.90;;;;;;;19.71;69.01;94781.06;5074581;28;20038;-73
2023/06/24 01:38:01;;;;;;;10.45;9.43;;;;;;;19.75;69.22;94790.22;5074293;28;20036;-73
2023/06/24 01:40:32;;;;;;;12.05;9.77;;;;;;;19.70;69.35;94782.88;5072007;28;20481;-73
2023/06/24 01:42:58;;;;;;;11.80;10.20;;;;;;;19.77;69.08;94785.59;5094005;28;20089;-73
2023/06/24 01:45:25;;;;;;;11.38;9.63;;;;;;;19.76;69.05;94792.69;5072113;28;20032;-74
2023/06/24 01:48:01;;;;;;;10.43;9.25;;;;;;;19.69;68.34;94767.25;5082295;28;20498;-73
2023/06/24 01:50:27;;;;;;;12.73;9.55;;;;;;;19.75;68.18;94779.69;5039008;28;20044;-73
2023/06/24 01:52:52;;;;;;;10.95;9.13;;;;;;;19.77;68.46;94782.94;5051014;28;20028;-73
2023/06/24 01:55:19;;;;;;;10.73;9.63;;;;;;;19.84;68.13;94795.22;5074545;28;20028;-73
2023/06/24 01:57:45;;;;;;;10.32;9.30;;;;;;;19.80;68.40;94808.94;5092646;28;20036;-73
2023/06/24 02:00:10;;;;;;;10.15;9.13;;;;;;;19.78;68.36;94813.56;5090975;28;20024;-73
2023/06/24 02:02:36;;;;;;;11.40;9.63;;;;;;;19.82;67.92;94820.94;5073831;28;20492;-73
2023/06/24 02:05:03;;;;;;;10.60;9.50;;;;;;;19.80;67.94;94816.84;5060911;28;20061;-73
2023/06/24 02:07:29;;;;;;;10.30;9.30;;;;;;;19.76;68.46;94810.31;5070817;28;20029;-73
2023/06/24 02:09:55;;;;;;;10.45;9.45;;;;;;;19.71;68.42;94812.69;5054406;28;20074;-73
2023/06/24 02:12:20;;;;;;;10.75;9.68;;;;;;;19.70;68.62;94827.69;5054074;28;20041;-73
2023/06/24 02:14:46;;;;;;;10.75;9.68;;;;;;;19.77;68.93;94835.66;5070783;28;20101;-73
2023/06/24 02:17:12;;;;;;;11.25;10.05;;;;;;;19.68;68.64;94832.31;5070546;28;20032;-73
2023/06/24 02:19:37;;;;;;;12.63;9.98;;;;;;;19.81;69.03;94844.84;5054004;28;20025;-73
2023/06/24 02:22:04;;;;;;;11.88;10.15;;;;;;;19.63;69.75;94834.63;5053943;28;20036;-73
2023/06/24 02:24:30;;;;;;;10.07;9.07;;;;;;;19.52;69.81;94822.72;5054233;28;20039;-74
2023/06/24 02:26:57;;;;;;;11.48;8.90;;;;;;;19.66;69.38;94821.13;5053806;28;20132;-74
2023/06/24 02:29:22;;;;;;;10.00;8.98;;;;;;;19.52;69.85;94830.63;5053896;28;20029;-73
2023/06/24 02:31:48;;;;;;;12.00;9.43;;;;;;;19.60;69.18;94829.72;5037103;28;20158;-73
2023/06/24 02:57:20;;;;;;;11.35;10.15;;;;;;;19.32;70.97;94880.41;5149698;27;20747;-71
2023/06/24 02:59:45;;;;;;;11.73;9.27;;;;;;;19.32;70.09;94876.94;5149575;27;20145;-71
2023/06/24 03:02:11;;;;;;;13.43;9.65;;;;;;;19.34;70.44;94883.69;5148468;27;20035;-72
2023/06/24 03:04:38;;;;;;;9.80;8.80;;;;;;;19.31;69.97;94877.97;5149811;27;20022;-72
2023/06/24 03:07:03;;;;;;;13.50;9.10;;;;;;;19.33;70.41;94878.56;5131259;27;20031;-72
2023/06/24 03:09:33;;;;;;;10.45;9.45;;;;;;;19.27;70.21;94881.94;5131058;27;20027;-72
2023/06/24 03:11:59;;;;;;;10.27;9.27;;;;;;;19.34;70.45;94890.75;5111712;27;20035;-72
2023/06/24 03:14:24;;;;;;;10.65;9.30;;;;;;;19.32;69.85;94876.94;5128781;27;20050;-72
2023/06/24 03:16:49;;;;;;;10.73;9.50;;;;;;;19.47;70.86;94890.94;5127463;28;20035;-72
2023/06/24 03:19:15;;;;;;;10.77;8.43;;;;;;;19.62;71.28;94881.25;5109881;28;20023;-72
2023/06/24 03:21:40;;;;;;;12.40;8.80;;;;;;;19.47;72.08;94885.66;5126655;28;20023;-72
2023/06/24 03:24:06;;;;;;;11.60;9.65;;;;;;;19.37;71.18;94882.50;5128638;27;20038;-72
2023/06/24 03:26:38;;;;;;;12.70;9.30;;;;;;;19.54;70.05;94881.34;5110212;28;20133;-72
2023/06/24 03:29:04;;;;;;;10.57;9.57;;;;;;;19.39;70.14;94886.59;5122692;27;20027;-72
2023/06/24 03:31:30;;;;;;;12.15;10.05;;;;;;;19.31;70.90;94885.84;5086951;28;20035;-72
2023/06/24 03:33:55;;;;;;;12.90;9.93;;;;;;;19.45;70.53;94897.41;5107072;28;20042;-72
2023/06/24 03:36:20;;;;;;;10.63;9.63;;;;;;;19.68;70.00;94895.56;5120653;28;20031;-72
2023/06/24 03:38:46;;;;;;;11.38;10.00;;;;;;;19.77;69.71;94910.25;5122408;28;20105;-72
2023/06/24 03:41:11;;;;;;;10.38;9.35;;;;;;;19.92;69.51;94910.28;5107067;28;20062;-72
2023/06/24 03:43:37;;;;;;;12.15;9.35;;;;;;;19.94;69.33;94918.00;5126515;28;20486;-72
2023/06/24 03:46:02;;;;;;;10.95;9.50;;;;;;;19.87;69.70;94920.56;5126341;28;20473;-72
2023/06/24 03:48:28;;;;;;;11.35;9.55;;;;;;;19.93;69.89;94925.09;5108262;28;20032;-72
2023/06/24 03:50:53;;;;;;;12.77;9.35;;;;;;;19.88;70.13;94924.00;5126252;27;20493;-72
2023/06/24 03:53:18;;;;;;;10.50;9.32;;;;;;;19.90;71.33;94933.38;5126211;28;20092;-72
2023/06/24 03:55:44;;;;;;;10.68;9.20;;;;;;;20.06;71.19;94927.91;5118126;28;20055;-72
2023/06/24 03:58:13;;;;;;;15.82;9.32;;;;;;;20.13;71.22;94935.09;5072746;28;20036;-72
2023/06/24 04:00:40;;;;;;;10.27;9.02;;;;;;;20.01;71.05;94917.09;5090241;28;20525;-72
2023/06/24 04:03:08;;;;;;;10.68;9.40;;;;;;;20.20;70.43;94925.47;5075409;28;20025;-73
2023/06/24 04:05:34;;;;;;;11.25;9.27;;;;;;;20.04;70.60;94921.19;5091872;28;20036;-72
2023/06/24 04:07:59;;;;;;;9.77;8.43;;;;;;;20.27;70.41;94895.50;5088414;28;20024;-75
2023/06/24 04:10:25;;;;;;;10.95;9.30;;;;;;;20.74;69.28;94920.63;5057607;28;20051;-72
2023/06/24 04:12:50;;;;;;;11.90;9.20;;;;;;;21.47;67.00;94909.13;5066885;28;20047;-73
2023/06/24 04:15:16;;;;;;;10.60;9.10;;;;;;;22.09;65.81;94918.84;5073781;28;20047;-71
2023/06/24 04:17:41;;;;;;;10.27;8.90;;;;;;;22.78;62.73;94914.47;5096218;28;20028;-71
2023/06/24 04:20:10;;;;;;;11.55;10.35;;;;;;;23.21;59.29;94909.72;5075357;28;20028;-72
2023/06/24 04:22:41;;;;;;;9.13;8.25;;;;;;;23.86;57.22;94925.81;5091603;28;20024;-72
2023/06/24 04:25:06;;;;;;;9.32;8.43;;;;;;;24.34;55.83;94914.88;5057448;28;20574;-72
2023/06/24 04:27:33;;;;;;;9.95;8.30;;;;;;;24.76;54.97;94907.34;5074871;28;20028;-72
2023/06/24 04:29:59;;;;;;;9.52;8.45;;;;;;;25.23;52.35;94910.56;5051897;28;20043;-75
2023/06/24 04:32:24;;;;;;;9.27;8.27;;;;;;;25.55;50.90;94911.34;5088962;28;20032;-75
2023/06/24 04:34:50;;;;;;;8.93;8.02;;;;;;;25.87;50.17;94891.84;5072440;28;20047;-75
2023/06/24 04:37:15;;;;;;;8.05;7.25;;;;;;;26.28;48.90;94889.34;5088478;28;20023;-74
2023/06/24 04:39:41;;;;;;;8.48;7.68;;;;;;;26.33;48.94;94893.19;5069931;28;20033;-74
2023/06/24 04:42:07;;;;;;;8.98;8.10;;;;;;;26.33;49.46;94880.72;5086652;28;20040;-74
2023/06/24 04:44:32;;;;;;;8.57;7.78;;;;;;;26.31;48.68;94872.13;5087375;28;20024;-74
2023/06/24 04:46:57;;;;;;;8.88;8.07;;;;;;;25.91;50.03;94895.69;5086321;28;20028;-75
2023/06/24 04:49:23;;;;;;;9.10;7.55;;;;;;;25.89;49.35;94897.78;5087693;28;20024;-76
2023/06/24 04:51:48;;;;;;;8.80;7.82;;;;;;;25.38;51.50;94892.47;5086852;28;20023;-76
2023/06/24 04:54:14;;;;;;;10.57;8.02;;;;;;;25.42;52.18;94900.81;5088048;28;20028;-76
2023/06/24 04:56:39;;;;;;;9.75;8.07;;;;;;;25.05;54.08;94897.19;5072748;28;20066;-76
2023/06/24 04:59:05;;;;;;;10.13;8.85;;;;;;;25.20;53.20;94905.69;5106387;28;20051;-76
2023/06/24 05:01:30;;;;;;;9.77;8.88;;;;;;;25.28;52.73;94902.75;5107271;27;20085;-76
2023/06/24 05:03:56;;;;;;;13.07;8.48;;;;;;;25.32;54.49;94909.25;5072432;28;20052;-76
2023/06/24 05:06:21;;;;;;;10.55;9.52;;;;;;;25.16;53.23;94904.50;5107699;28;20423;-76
2023/06/24 05:08:47;;;;;;;10.88;9.77;;;;;;;25.16;53.57;94904.50;5101647;28;20117;-76
2023/06/24 05:11:12;;;;;;;13.63;9.43;;;;;;;25.41;53.27;94907.19;5106372;28;20031;-76
2023/06/24 05:13:37;;;;;;;11.45;9.38;;;;;;;25.57;53.71;94905.78;5107426;28;20423;-75
2023/06/24 05:16:03;;;;;;;11.85;10.60;;;;;;;25.11;54.59;94898.97;5089381;28;20123;-76
2023/06/24 05:18:28;;;;;;;10.43;9.43;;;;;;;24.51;55.68;94908.06;5107962;28;20023;-76
2023/06/24 05:20:54;;;;;;;13.15;10.68;;;;;;;24.27;56.67;94916.75;5109082;27;20039;-76
2023/06/24 05:23:19;;;;;;;13.25;11.73;;;;;;;24.56;56.60;94915.41;5105860;28;20032;-76
2023/06/24 05:25:45;;;;;;;13.27;11.55;;;;;;;24.87;56.24;94908.53;5107417;28;20039;-77
2023/06/24 05:28:10;;;;;;;13.57;10.77;;;;;;;24.86;56.50;94883.81;5106872;28;20064;-77
2023/06/24 05:30:36;;;;;;;14.88;10.57;;;;;;;25.02;56.85;94894.94;5109129;28;20067;-76
2023/06/24 05:33:01;;;;;;;14.00;10.60;;;;;;;24.72;56.94;94887.56;5101004;28;20034;-80
2023/06/24 05:35:26;;;;;;;12.27;10.63;;;;;;;24.78;56.89;94894.69;5107251;28;20420;-77
2023/06/24 05:37:52;;;;;;;10.90;9.90;;;;;;;24.66;57.42;94889.25;5107503;28;20024;-77
2023/06/24 05:40:17;;;;;;;13.43;9.57;;;;;;;24.86;56.86;94894.44;5089877;28;20040;-78
2023/06/24 05:42:43;;;;;;;12.52;9.82;;;;;;;25.00;56.38;94889.03;5105272;28;20066;-78
2023/06/24 05:45:08;;;;;;;11.35;10.25;;;;;;;25.06;55.86;94896.16;5089162;28;20032;-76
2023/06/24 05:47:34;;;;;;;11.40;10.02;;;;;;;25.00;56.12;94894.34;5108587;28;20024;-77
2023/06/24 05:49:59;;;;;;;16.30;10.75;;;;;;;25.21;55.36;94901.97;5105331;28;20073;-82
2023/06/24 05:52:25;;;;;;;11.75;10.55;;;;;;;25.01;55.73;94888.00;5105604;28;20032;-83
2023/06/24 05:54:50;;;;;;;14.38;11.00;;;;;;;25.25;55.52;94895.22;5111025;27;20078;-81
2023/06/24 05:57:16;;;;;;;11.60;10.50;;;;;;;25.06;55.98;94883.66;5107438;28;20035;-80
2023/06/24 05:59:41;;;;;;;12.40;11.05;;;;;;;25.28;56.00;94902.75;5106907;28;20118;-86
2023/06/24 06:02:07;;;;;;;13.65;10.63;;;;;;;25.31;55.64;94888.22;5088583;28;20515;-83
2023/06/24 06:04:32;;;;;;;11.60;10.13;;;;;;;24.92;56.07;94850.25;5108650;27;20023;-85
2023/06/24 06:06:58;;;;;;;11.90;10.73;;;;;;;25.13;56.73;94878.28;5105056;28;20027;-76
2023/06/24 06:09:23;;;;;;;13.55;10.75;;;;;;;25.10;56.32;94878.72;5106359;27;20489;-78
2023/06/24 06:11:49;;;;;;;11.57;10.38;;;;;;;25.07;56.07;94874.66;5071899;28;20054;-81
2023/06/24 06:14:15;;;;;;;11.73;10.52;;;;;;;25.25;56.32;94884.59;5101193;28;20023;-77
2023/06/24 06:16:40;;;;;;;12.70;10.40;;;;;;;25.30;55.96;94876.78;5108197;28;20023;-83
2023/06/24 06:19:05;;;;;;;11.50;10.30;;;;;;;25.46;56.07;94877.25;5105743;28;20038;-73
2023/06/24 06:21:31;;;;;;;14.00;11.73;;;;;;;25.10;56.50;94874.25;5106250;27;20046;-73
2023/06/24 06:23:57;;;;;;;12.07;10.80;;;;;;;25.34;56.65;94875.31;5106975;27;20085;-74
2023/06/24 06:26:22;;;;;;;15.80;11.38;;;;;;;25.24;56.21;94869.69;5114028;27;20038;-71
2023/06/24 06:28:47;;;;;;;14.15;11.40;;;;;;;25.45;56.23;94868.47;5112524;27;20019;-73
2023/06/24 06:31:13;;;;;;;13.65;11.30;;;;;;;25.47;55.86;94876.25;5110342;27;20039;-75
2023/06/24 06:33:39;;;;;;;11.85;10.75;;;;;;;25.48;55.83;94872.53;5105849;27;20042;-80
2023/06/24 06:36:04;;;;;;;13.20;11.25;;;;;;;25.68;55.44;94875.81;5109201;27;20031;-78
2023/06/24 06:38:30;;;;;;;13.07;10.60;;;;;;;25.78;54.98;94878.00;5107163;28;20039;-81
2023/06/24 06:40:55;;;;;;;11.88;10.73;;;;;;;25.84;54.65;94877.94;5091466;28;20039;-81
2023/06/24 06:43:21;;;;;;;12.15;10.77;;;;;;;26.05;54.59;94871.41;5108104;28;20032;-74
2023/06/24 06:45:47;;;;;;;11.27;10.07;;;;;;;26.01;55.24;94880.03;5127253;28;20031;-78
2023/06/24 06:48:12;;;;;;;11.88;10.68;;;;;;;26.22;53.88;94884.13;5107333;28;20027;-76
2023/06/24 06:50:37;;;;;;;12.27;10.75;;;;;;;26.21;52.19;94877.97;5100461;28;20039;-76
2023/06/24 06:53:03;;;;;;;13.82;10.15;;;;;;;26.40;53.15;94877.94;5087711;28;20027;-78
2023/06/24 06:55:29;;;;;;;12.07;10.80;;;;;;;26.05;53.51;94873.25;5102127;28;20048;-76
2023/06/24 06:57:55;;;;;;;12.18;10.77;;;;;;;26.12;53.35;94876.63;5087305;28;20504;-77
2023/06/24 07:00:20;;;;;;;11.10;10.00;;;;;;;26.06;53.59;94877.53;5071112;28;20039;-78
2023/06/24 07:02:46;;;;;;;11.75;10.32;;;;;;;26.20;52.81;94865.69;5088512;28;20032;-78
2023/06/24 07:05:11;;;;;;;12.95;10.75;;;;;;;26.55;53.02;94886.41;5090712;28;20059;-78
2023/06/24 07:07:38;;;;;;;11.23;10.02;;;;;;;26.48;53.22;94865.13;5087348;28;20031;-78
2023/06/24 07:10:04;;;;;;;11.32;10.15;;;;;;;26.72;51.92;94882.06;5072098;28;20035;-78
2023/06/24 07:12:29;;;;;;;11.32;10.10;;;;;;;26.80;53.10;94893.44;5087994;28;20066;-78
2023/06/24 07:14:55;;;;;;;13.80;10.75;;;;;;;26.85;51.93;94893.56;5089887;28;20506;-78
2023/06/24 07:17:20;;;;;;;12.45;11.15;;;;;;;26.77;52.42;94889.38;5090080;28;20020;-78
2023/06/24 07:19:45;;;;;;;11.57;10.02;;;;;;;26.97;51.66;94889.13;5087836;28;20201;-78
2023/06/24 07:22:11;;;;;;;10.93;9.77;;;;;;;27.07;51.85;94897.34;5087583;28;20028;-78
2023/06/24 07:24:36;;;;;;;11.15;10.10;;;;;;;26.99;51.89;94892.34;5089298;28;20035;-78
2023/06/24 07:27:02;;;;;;;14.55;10.05;;;;;;;27.16;51.34;94896.03;5087820;28;20027;-78
2023/06/24 07:29:28;;;;;;;11.18;9.93;;;;;;;27.34;51.50;94897.00;5089411;28;20505;-78
2023/06/24 07:31:53;;;;;;;9.85;9.05;;;;;;;27.70;50.47;94898.66;5055912;28;20032;-78
2023/06/24 07:34:18;;;;;;;12.30;10.20;;;;;;;27.77;49.91;94887.88;5093572;28;20021;-78
2023/06/24 07:36:44;;;;;;;11.27;9.80;;;;;;;27.65;50.05;94884.38;5074849;28;20032;-77
2023/06/24 07:39:09;;;;;;;11.48;9.45;;;;;;;27.29;50.24;94892.34;5093125;28;20032;-78
2023/06/24 07:41:35;;;;;;;9.95;8.93;;;;;;;27.73;49.17;94881.38;5091739;28;20035;-78
2023/06/24 07:44:01;;;;;;;10.32;9.32;;;;;;;27.83;50.28;94879.78;5092474;28;20107;-78
2023/06/24 07:46:27;;;;;;;10.02;9.13;;;;;;;27.39;51.89;94889.94;5092066;28;20039;-78
2023/06/24 07:48:53;;;;;;;10.15;9.20;;;;;;;27.79;48.84;94885.78;5075873;28;20089;-77
2023/06/24 07:51:18;;;;;;;10.02;9.13;;;;;;;27.83;50.06;94879.78;5075884;28;20028;-78
2023/06/24 07:53:44;;;;;;;10.02;9.02;;;;;;;27.70;50.11;94888.00;5076334;28;20569;-77
2023/06/24 07:56:09;;;;;;;9.25;8.45;;;;;;;27.73;49.33;94884.03;5086767;28;20493;-78
2023/06/24 07:58:36;;;;;;;9.88;8.98;;;;;;;27.91;48.26;94872.47;5117012;27;20024;-78
2023/06/24 08:01:02;;;;;;;9.90;9.00;;;;;;;28.15;49.30;94878.59;5095612;28;20039;-77
2023/06/24 08:03:28;;;;;;;10.07;8.88;;;;;;;28.27;49.40;94890.03;5090800;28;20023;-77
2023/06/24 08:05:53;;;;;;;12.52;9.45;;;;;;;28.58;48.40;94880.00;5117870;28;20040;-78
2023/06/24 08:08:20;;;;;;;10.88;9.77;;;;;;;28.41;47.84;94894.06;5101290;28;20031;-78
2023/06/24 08:10:46;;;;;;;10.57;9.48;;;;;;;28.24;48.31;94894.00;5091434;28;20537;-76
2023/06/24 08:13:11;;;;;;;9.90;8.77;;;;;;;28.48;48.43;94889.44;5104057;27;20032;-78
2023/06/24 08:15:36;;;;;;;10.13;9.15;;;;;;;28.70;47.08;94881.59;5109771;28;20032;-78
2023/06/24 08:18:02;;;;;;;10.95;9.80;;;;;;;28.35;47.95;94862.97;5095814;28;20077;-78
2023/06/24 08:20:27;;;;;;;10.45;9.55;;;;;;;28.43;47.67;94881.34;5113045;28;20078;-78
2023/06/24 08:22:53;;;;;;;10.23;9.32;;;;;;;28.81;46.46;94882.59;5111602;28;20085;-78
2023/06/24 08:25:18;;;;;;;17.83;9.63;;;;;;;28.70;47.23;94884.28;5109805;28;20028;-77
2023/06/24 08:27:46;;;;;;;9.80;8.95;;;;;;;28.67;46.63;94862.56;5095602;28;20066;-77
2023/06/24 08:30:12;;;;;;;9.93;8.93;;;;;;;29.08;47.11;94880.16;5087149;28;20040;-78
2023/06/24 08:32:38;;;;;;;10.43;9.15;;;;;;;29.00;46.16;94874.38;5106415;28;20062;-78
2023/06/24 08:35:04;;;;;;;9.50;8.57;;;;;;;28.93;46.65;94880.69;5089339;28;20048;-79
2023/06/24 08:37:29;;;;;;;9.77;8.80;;;;;;;28.71;46.21;94877.88;5091575;28;20035;-80
2023/06/24 08:39:55;;;;;;;14.77;8.70;;;;;;;28.66;45.77;94874.28;5107881;28;20397;-78
2023/06/24 08:42:20;;;;;;;9.35;8.50;;;;;;;28.75;46.00;94875.50;5104697;27;20458;-78
2023/06/24 08:44:45;;;;;;;10.05;8.80;;;;;;;28.92;46.02;94864.91;5085892;28;20085;-77
2023/06/24 08:47:11;;;;;;;11.40;8.68;;;;;;;28.47;48.56;94858.47;5112175;27;20031;-78
2023/06/24 08:49:47;;;;;;;9.48;8.68;;;;;;;28.48;46.57;94851.25;5084562;28;20027;-78
2023/06/24 08:52:13;;;;;;;11.90;8.68;;;;;;;28.72;46.49;94858.13;5090415;28;20036;-78
2023/06/24 08:54:40;;;;;;;8.88;7.97;;;;;;;28.86;46.61;94849.78;5107044;28;20028;-76
2023/06/24 08:57:06;;;;;;;9.82;8.30;;;;;;;28.87;45.42;94840.75;5088374;28;20398;-78
2023/06/24 08:59:36;;;;;;;9.70;8.70;;;;;;;28.86;44.62;94839.94;5105312;28;20047;-78
2023/06/24 09:02:02;;;;;;;9.45;8.52;;;;;;;28.99;45.23;94840.66;5107715;27;20485;-78
2023/06/24 09:04:27;;;;;;;8.68;7.93;;;;;;;29.19;45.22;94854.41;5107826;28;20043;-78
2023/06/24 09:06:53;;;;;;;9.05;8.15;;;;;;;28.79;46.30;94830.44;5112401;27;20040;-78
2023/06/24 09:09:19;;;;;;;9.25;8.45;;;;;;;28.45;45.75;94849.84;5107871;28;20504;-78
2023/06/24 09:11:51;;;;;;;10.93;8.43;;;;;;;28.39;46.76;94829.41;5086334;28;20419;-78
2023/06/24 09:14:17;;;;;;;10.68;9.10;;;;;;;28.44;46.30;94826.84;5108294;28;20042;-78
2023/06/24 09:16:43;;;;;;;9.98;8.52;;;;;;;28.70;45.97;94844.19;5107644;28;20071;-77
2023/06/24 09:19:09;;;;;;;9.48;8.05;;;;;;;28.94;44.61;94836.84;5089008;28;20031;-79
2023/06/24 09:21:38;;;;;;;9.43;8.20;;;;;;;29.22;44.89;94840.53;5093200;28;20092;-79
2023/06/24 09:24:04;;;;;;;10.20;8.27;;;;;;;29.51;45.12;94840.47;5107211;28;20035;-79
2023/06/24 09:26:30;;;;;;;11.52;9.35;;;;;;;29.46;45.26;94843.06;5091434;28;20044;-78
2023/06/24 09:28:56;;;;;;;9.27;8.38;;;;;;;29.53;44.74;94847.22;5105908;28;20558;-79
2023/06/24 09:31:23;;;;;;;9.20;8.30;;;;;;;29.66;44.49;94851.44;5104478;28;20417;-79
2023/06/24 09:33:48;;;;;;;13.70;8.57;;;;;;;29.82;44.60;94849.78;5087926;28;20077;-78
2023/06/24 09:36:14;;;;;;;8.95;8.15;;;;;;;29.82;43.33;94833.72;5107770;28;20027;-76
2023/06/24 09:38:41;;;;;;;10.68;8.77;;;;;;;29.84;45.75;94851.16;5107987;28;20467;-78
2023/06/24 09:41:06;;;;;;;10.00;8.93;;;;;;;29.81;44.36;94849.00;5090503;28;20028;-79
2023/06/24 09:43:42;;;;;;;9.85;8.25;;;;;;;29.93;44.49;94850.75;5103779;28;20051;-78
2023/06/24 09:46:07;;;;;;;8.77;7.97;;;;;;;29.95;43.16;94848.63;5089818;28;20036;-80
2023/06/24 09:48:33;;;;;;;8.48;7.68;;;;;;;29.01;44.46;94846.59;5104976;27;20031;-84
2023/06/24 09:51:03;;;;;;;9.20;8.20;;;;;;;29.73;43.28;94827.19;5100552;28;20063;-80
2023/06/24 09:53:32;;;;;;;9.85;8.90;;;;;;;30.02;43.97;94849.25;5107685;28;20401;-86
2023/06/24 09:56:03;;;;;;;9.38;8.48;;;;;;;29.94;42.11;94839.78;5071863;28;20062;-82
2023/06/24 09:58:33;;;;;;;10.23;8.38;;;;;;;29.98;42.04;94843.59;5070682;27;20023;-76
2023/06/24 10:01:02;;;;;;;8.98;8.18;;;;;;;29.76;43.14;94803.41;5087674;28;20027;-82
2023/06/24 10:03:27;;;;;;;8.45;7.60;;;;;;;30.14;41.99;94825.84;5091764;27;20038;-82
2023/06/24 10:05:53;;;;;;;8.90;7.43;;;;;;;30.25;41.53;94827.59;5092619;28;20076;-79
2023/06/24 10:08:18;;;;;;;9.15;7.78;;;;;;;30.13;41.51;94824.22;5106396;28;20024;-80
2023/06/24 10:10:44;;;;;;;9.38;8.10;;;;;;;30.12;41.38;94816.47;5108088;28;20043;-78
2023/06/24 10:13:09;;;;;;;10.85;7.88;;;;;;;30.13;42.13;94815.38;5106588;28;20035;-80
2023/06/24 10:15:35;;;;;;;8.40;7.70;;;;;;;30.15;41.30;94813.28;5105222;28;20047;-85
2023/06/24 10:18:28;;;;;;;9.18;7.45;;;;;;;30.04;41.40;94801.63;5093293;28;20038;-79
2023/06/24 10:20:54;;;;;;;9.02;7.20;;;;;;;29.99;41.33;94806.91;5110778;28;20028;-83
2023/06/24 10:23:21;;;;;;;8.50;7.70;;;;;;;30.07;41.46;94803.81;5110144;27;20043;-82
2023/06/24 10:25:48;;;;;;;10.50;7.40;;;;;;;29.71;41.56;94783.78;5095687;28;20043;-83
2023/06/24 10:28:13;;;;;;;8.27;7.47;;;;;;;29.65;42.06;94768.72;5088496;28;20032;-81
2023/06/24 10:30:38;;;;;;;8.98;7.68;;;;;;;29.69;42.16;94786.72;5054554;28;20024;-83
2023/06/24 10:33:04;;;;;;;9.68;7.18;;;;;;;29.80;42.26;94775.06;5089025;28;20025;-83
2023/06/24 10:35:30;;;;;;;8.43;7.25;;;;;;;29.87;42.29;94769.56;5073006;28;20043;-83
2023/06/24 10:37:59;;;;;;;7.70;7.00;;;;;;;29.80;41.54;94758.22;5089983;28;20024;-83
2023/06/24 10:40:43;;;;;;;8.00;7.22;;;;;;;29.83;41.53;94760.38;5072684;28;20036;-83
2023/06/24 10:43:24;;;;;;;8.55;7.15;;;;;;;29.98;41.24;94760.59;5071160;28;20027;-83
2023/06/24 10:45:50;;;;;;;7.63;6.93;;;;;;;30.07;41.69;94739.53;5089622;28;20111;-84
2023/06/24 10:48:16;;;;;;;13.13;7.47;;;;;;;30.24;41.91;94742.97;5071664;28;20020;-83
2023/06/24 10:50:42;;;;;;;10.25;7.32;;;;;;;30.24;43.45;94748.31;5087720;28;20104;-83
2023/06/24 10:53:08;;;;;;;10.82;7.47;;;;;;;30.35;40.13;94753.81;5087837;28;20024;-84
2023/06/24 10:55:33;;;;;;;7.72;6.63;;;;;;;30.17;39.40;94755.72;5071047;28;20090;-84
2023/06/24 10:58:12;;;;;;;9.82;6.78;;;;;;;30.25;39.91;94752.59;5072124;28;20163;-83
2023/06/24 11:00:38;;;;;;;7.80;6.77;;;;;;;30.25;40.65;94751.81;5072463;28;20486;-83
2023/06/24 11:03:13;;;;;;;7.35;6.65;;;;;;;30.17;40.43;94744.19;5089220;28;20067;-82
2023/06/24 11:05:42;;;;;;;7.82;6.93;;;;;;;29.99;39.62;94740.78;5090126;28;20036;-84
2023/06/24 11:08:08;;;;;;;7.03;6.32;;;;;;;30.37;39.91;94740.94;5094120;28;20107;-83
2023/06/24 11:10:41;;;;;;;8.80;6.82;;;;;;;30.55;39.19;94739.78;5077103;28;20554;-83
2023/06/24 11:13:06;;;;;;;7.82;6.50;;;;;;;30.27;39.81;94734.41;5078007;28;20480;-83
2023/06/24 11:15:32;;;;;;;7.50;6.80;;;;;;;30.37;40.87;94730.22;5076967;28;20121;-83
2023/06/24 11:17:57;;;;;;;12.63;7.53;;;;;;;30.10;41.24;94736.34;5095118;28;20051;-83
2023/06/24 11:20:23;;;;;;;8.00;7.25;;;;;;;29.95;40.73;94730.81;5077080;28;20421;-81
2023/06/24 11:22:48;;;;;;;8.77;7.25;;;;;;;29.74;41.59;94740.47;5093839;28;20405;-80
2023/06/24 11:25:21;;;;;;;7.95;7.15;;;;;;;29.79;41.24;94732.50;5076985;28;20028;-81
2023/06/24 11:27:46;;;;;;;7.65;6.85;;;;;;;29.93;40.50;94746.34;5061609;28;20124;-81
2023/06/24 11:30:12;;;;;;;6.85;6.25;;;;;;;30.05;39.23;94737.09;5094046;28;20032;-81
2023/06/24 11:32:42;;;;;;;7.55;6.32;;;;;;;30.04;39.83;94743.53;5093953;28;20059;-80
2023/06/24 11:35:08;;;;;;;;;;;;;;;30.09;40.36;94741.94;5077108;28;20036;-81
2023/06/24 11:37:34;;;;;;;8.60;6.47;;;;;;;30.33;38.84;94742.53;5110763;28;19919;-81
2023/06/24 11:40:05;;;;;;;8.38;6.72;;;;;;;30.14;38.97;94742.81;5094811;28;20044;-82
2023/06/24 11:42:31;;;;;;;7.07;6.38;;;;;;;30.05;39.20;94744.31;5094813;28;20076;-82
2023/06/24 11:45:05;;;;;;;7.72;6.50;;;;;;;30.06;39.28;94738.72;5093227;28;20040;-82
2023/06/24 11:47:34;;;;;;;7.53;6.72;;;;;;;30.38;41.12;94734.53;5093719;28;20064;-81